createdAt,value
2018-06-08T01:31:27.478Z,1012.91
2018-06-08T01:31:28.043Z,1012.92
2018-06-08T01:31:28.643Z,1012.87
2018-06-08T01:31:29.244Z,1012.88
2018-06-08T01:31:29.843Z,1012.92
2018-06-08T01:31:30.441Z,1012.95
2018-06-08T01:31:31.041Z,1012.91
2018-06-08T01:31:31.640Z,1012.93
2018-06-08T01:32:26.145Z,1012.90
2018-06-08T01:32:26.719Z,1012.93
2018-06-08T01:32:27.318Z,1012.94
2018-06-08T01:32:27.919Z,1012.89
2018-06-08T01:32:28.519Z,1012.91
2018-06-08T01:32:29.123Z,1012.92
2018-06-08T01:32:29.717Z,1012.92
2018-06-08T01:32:30.325Z,1012.93
2018-06-08T01:33:24.822Z,1012.89
2018-06-08T01:33:25.406Z,1012.90
2018-06-08T01:33:25.997Z,1012.88
2018-06-08T01:33:26.596Z,1012.91
2018-06-08T01:33:27.195Z,1012.89
2018-06-08T01:33:27.795Z,1012.87
2018-06-08T01:33:28.394Z,1012.90
2018-06-08T01:33:28.994Z,1012.93
2018-06-08T01:34:23.500Z,1012.89
2018-06-08T01:34:24.075Z,1012.91
2018-06-08T01:34:24.671Z,1012.90
2018-06-08T01:34:25.272Z,1012.86
2018-06-08T01:34:25.871Z,1012.92
2018-06-08T01:34:26.471Z,1012.90
2018-06-08T01:34:27.072Z,1012.90
2018-06-08T01:34:27.672Z,1012.92
2018-06-08T01:35:21.152Z,1012.90
2018-06-08T01:35:21.725Z,1012.93
2018-06-08T01:35:22.324Z,1012.92
2018-06-08T01:35:22.924Z,1012.90
2018-06-08T01:35:23.536Z,1012.92
2018-06-08T01:35:24.124Z,1012.91
2018-06-08T01:35:24.724Z,1012.89
2018-06-08T01:35:25.323Z,1012.96
2018-06-08T01:36:18.805Z,1012.92
2018-06-08T01:36:19.377Z,1012.95
2018-06-08T01:36:19.978Z,1012.91
2018-06-08T01:36:20.575Z,1012.90
2018-06-08T01:36:21.177Z,1012.93
2018-06-08T01:36:21.777Z,1012.91
2018-06-08T01:36:22.376Z,1012.88
2018-06-08T01:36:22.976Z,1012.89
2018-06-08T01:37:17.480Z,1012.92
2018-06-08T01:37:18.055Z,1012.93
2018-06-08T01:37:18.653Z,1012.92
2018-06-08T01:37:19.252Z,1012.91
2018-06-08T01:37:19.852Z,1012.92
2018-06-08T01:37:20.452Z,1012.93
2018-06-08T01:37:21.052Z,1012.93
2018-06-08T01:37:21.652Z,1012.90
2018-06-08T01:38:15.132Z,1012.94
2018-06-08T01:38:15.704Z,1012.93
2018-06-08T01:38:16.306Z,1012.94
2018-06-08T01:38:16.905Z,1012.94
2018-06-08T01:38:17.504Z,1012.93
2018-06-08T01:38:18.103Z,1012.93
2018-06-08T01:38:18.704Z,1012.87
2018-06-08T01:38:19.303Z,1012.93
2018-06-08T01:39:12.784Z,1012.94
2018-06-08T01:39:13.369Z,1012.93
2018-06-08T01:39:13.960Z,1012.93
2018-06-08T01:39:14.561Z,1012.92
2018-06-08T01:39:15.157Z,1012.93
2018-06-08T01:39:15.756Z,1012.92
2018-06-08T01:39:16.356Z,1012.92
2018-06-08T01:39:16.961Z,1012.89
2018-06-08T01:40:10.436Z,1012.92
2018-06-08T01:40:11.009Z,1012.95
2018-06-08T01:40:11.650Z,1012.92
2018-06-08T01:40:12.212Z,1012.91
2018-06-08T01:40:12.809Z,1012.88
2018-06-08T01:40:13.409Z,1012.92
2018-06-08T01:40:14.009Z,1012.91
2018-06-08T01:40:14.610Z,1012.90
2018-06-08T01:41:08.089Z,1012.94
2018-06-08T01:41:08.660Z,1012.91
2018-06-08T01:41:09.262Z,1012.88
2018-06-08T01:41:09.862Z,1012.91
2018-06-08T01:41:10.460Z,1012.92
2018-06-08T01:41:11.060Z,1012.90
2018-06-08T01:41:11.660Z,1012.91
2018-06-08T01:41:12.262Z,1012.89
2018-06-08T01:42:06.765Z,1012.90
2018-06-08T01:42:07.336Z,1012.90
2018-06-08T01:42:07.938Z,1012.92
2018-06-08T01:42:08.535Z,1012.92
2018-06-08T01:42:09.138Z,1012.93
2018-06-08T01:42:09.735Z,1012.90
2018-06-08T01:42:10.338Z,1012.92
2018-06-08T01:42:10.937Z,1012.91
2018-06-08T01:43:04.418Z,1012.94
2018-06-08T01:43:04.988Z,1012.91
2018-06-08T01:43:05.590Z,1012.91
2018-06-08T01:43:06.201Z,1012.91
2018-06-08T01:43:06.789Z,1012.93
2018-06-08T01:43:07.389Z,1012.92
2018-06-08T01:43:07.988Z,1012.92
2018-06-08T01:43:08.589Z,1012.93
2018-06-08T01:44:03.092Z,1012.91
2018-06-08T01:44:03.664Z,1012.95
2018-06-08T01:44:04.270Z,1012.92
2018-06-08T01:44:04.864Z,1012.92
2018-06-08T01:44:05.464Z,1012.93
2018-06-08T01:44:06.063Z,1012.92
2018-06-08T01:44:06.663Z,1012.90
2018-06-08T01:44:07.265Z,1012.91
2018-06-08T01:45:00.744Z,1012.93
2018-06-08T01:45:01.318Z,1012.90
2018-06-08T01:45:01.919Z,1012.90
2018-06-08T01:45:02.518Z,1012.89
2018-06-08T01:45:03.116Z,1012.90
2018-06-08T01:45:03.723Z,1012.89
2018-06-08T01:45:04.320Z,1012.90
2018-06-08T01:45:04.919Z,1012.91
2018-06-08T01:45:59.419Z,1012.91
2018-06-08T01:45:59.990Z,1012.92
2018-06-08T01:46:00.592Z,1012.90
2018-06-08T01:46:01.192Z,1012.84
2018-06-08T01:46:01.791Z,1012.90
2018-06-08T01:46:02.391Z,1012.90
2018-06-08T01:46:02.990Z,1012.92
2018-06-08T01:46:03.591Z,1012.91
2018-06-08T01:46:57.075Z,1012.95
2018-06-08T01:46:57.645Z,1012.94
2018-06-08T01:46:58.246Z,1012.94
2018-06-08T01:46:58.843Z,1012.91
2018-06-08T01:46:59.443Z,1012.93
2018-06-08T01:47:00.045Z,1012.91
2018-06-08T01:47:00.642Z,1012.93
2018-06-08T01:47:01.243Z,1012.93
2018-06-08T01:47:55.748Z,1012.90
2018-06-08T01:47:56.320Z,1012.93
2018-06-08T01:47:56.922Z,1012.92
2018-06-08T01:47:57.520Z,1012.94
2018-06-08T01:47:58.119Z,1012.92
2018-06-08T01:47:58.717Z,1012.94
2018-06-08T01:47:59.319Z,1012.94
2018-06-08T01:47:59.921Z,1012.93
2018-06-08T01:48:54.422Z,1012.94
2018-06-08T01:48:54.996Z,1012.93
2018-06-08T01:48:55.596Z,1012.93
2018-06-08T01:48:56.195Z,1012.89
2018-06-08T01:48:56.794Z,1012.93
2018-06-08T01:48:57.396Z,1012.91
2018-06-08T01:48:57.994Z,1012.93
2018-06-08T01:48:58.596Z,1012.93
2018-06-08T01:49:52.075Z,1012.93
2018-06-08T01:49:52.647Z,1012.93
2018-06-08T01:49:53.247Z,1012.93
2018-06-08T01:49:53.847Z,1012.90
2018-06-08T01:49:54.448Z,1012.90
2018-06-08T01:49:55.047Z,1012.87
2018-06-08T01:49:55.646Z,1012.95
2018-06-08T01:49:56.247Z,1012.89
2018-06-08T01:50:50.752Z,1012.94
2018-06-08T01:50:51.329Z,1012.95
2018-06-08T01:50:51.922Z,1012.95
2018-06-08T01:50:52.522Z,1012.93
2018-06-08T01:50:53.121Z,1012.90
2018-06-08T01:50:53.723Z,1012.92
2018-06-08T01:50:54.323Z,1012.92
2018-06-08T01:50:54.922Z,1012.93
2018-06-08T01:51:48.402Z,1012.96
2018-06-08T01:51:48.975Z,1012.96
2018-06-08T01:51:49.581Z,1012.94
2018-06-08T01:51:50.174Z,1012.95
2018-06-08T01:51:50.774Z,1012.92
2018-06-08T01:51:51.374Z,1012.93
2018-06-08T01:51:51.974Z,1012.96
2018-06-08T01:51:52.573Z,1012.94
2018-06-08T01:52:46.053Z,1012.92
2018-06-08T01:52:46.626Z,1012.93
2018-06-08T01:52:47.226Z,1012.94
2018-06-08T01:52:47.827Z,1012.95
2018-06-08T01:52:48.426Z,1012.97
2018-06-08T01:52:49.027Z,1012.94
2018-06-08T01:52:49.626Z,1012.97
2018-06-08T01:52:50.228Z,1012.95
2018-06-08T01:53:43.811Z,1012.94
2018-06-08T01:53:44.380Z,1012.96
2018-06-08T01:53:44.981Z,1012.93
2018-06-08T01:53:45.582Z,1012.95
2018-06-08T01:53:46.181Z,1012.94
2018-06-08T01:53:46.780Z,1012.96
2018-06-08T01:53:47.392Z,1012.93
2018-06-08T01:53:47.980Z,1012.96
2018-06-08T01:54:41.461Z,1012.95
2018-06-08T01:54:42.033Z,1012.95
2018-06-08T01:54:42.633Z,1012.94
2018-06-08T01:54:43.248Z,1012.95
2018-06-08T01:54:43.832Z,1012.96
2018-06-08T01:54:44.431Z,1012.98
2018-06-08T01:54:45.031Z,1012.93
2018-06-08T01:54:45.630Z,1012.97
2018-06-08T01:55:40.138Z,1012.96
2018-06-08T01:55:40.710Z,1012.97
2018-06-08T01:55:41.307Z,1012.96
2018-06-08T01:55:41.907Z,1012.93
2018-06-08T01:55:42.508Z,1012.95
2018-06-08T01:55:43.107Z,1012.97
2018-06-08T01:55:43.706Z,1012.97
2018-06-08T01:55:44.307Z,1012.98
2018-06-08T01:56:37.787Z,1012.97
2018-06-08T01:56:38.359Z,1012.94
2018-06-08T01:56:38.959Z,1012.96
2018-06-08T01:56:39.560Z,1012.95
2018-06-08T01:56:40.159Z,1012.93
2018-06-08T01:56:40.759Z,1012.96
2018-06-08T01:56:41.358Z,1012.99
2018-06-08T01:56:41.962Z,1012.95
2018-06-08T01:57:35.441Z,1012.97
2018-06-08T01:57:36.011Z,1012.95
2018-06-08T01:57:36.612Z,1012.96
2018-06-08T01:57:37.211Z,1012.93
2018-06-08T01:57:37.811Z,1012.95
2018-06-08T01:57:38.411Z,1012.95
2018-06-08T01:57:39.012Z,1012.96
2018-06-08T01:57:39.612Z,1012.96
2018-06-08T01:58:33.091Z,1012.98
2018-06-08T01:58:33.664Z,1012.96
2018-06-08T01:58:34.264Z,1012.93
2018-06-08T01:58:34.863Z,1012.99
2018-06-08T01:58:35.464Z,1013.00
2018-06-08T01:58:36.063Z,1012.96
2018-06-08T01:58:36.663Z,1013.02
2018-06-08T01:58:37.263Z,1012.98
2018-06-08T01:59:30.743Z,1012.91
2018-06-08T01:59:31.316Z,1013.00
2018-06-08T01:59:31.917Z,1012.97
2018-06-08T01:59:32.516Z,1012.96
2018-06-08T01:59:33.118Z,1012.94
2018-06-08T01:59:33.713Z,1012.96
2018-06-08T01:59:34.314Z,1012.98
2018-06-08T01:59:34.915Z,1012.96
2018-06-08T02:00:28.394Z,1012.98
2018-06-08T02:00:28.970Z,1012.94
2018-06-08T02:00:29.568Z,1012.99
2018-06-08T02:00:30.168Z,1012.95
2018-06-08T02:00:30.767Z,1012.95
2018-06-08T02:00:31.368Z,1012.97
2018-06-08T02:00:31.967Z,1012.93
2018-06-08T02:00:32.567Z,1012.95
2018-06-08T02:01:27.070Z,1012.93
2018-06-08T02:01:27.643Z,1012.97
2018-06-08T02:01:28.244Z,1012.98
2018-06-08T02:01:28.843Z,1012.95
2018-06-08T02:01:29.445Z,1012.95
2018-06-08T02:01:30.043Z,1012.94
2018-06-08T02:01:30.642Z,1012.93
2018-06-08T02:01:31.249Z,1012.96
2018-06-08T02:02:24.722Z,1012.97
2018-06-08T02:02:25.294Z,1012.96
2018-06-08T02:02:25.894Z,1012.94
2018-06-08T02:02:26.498Z,1012.94
2018-06-08T02:02:27.096Z,1012.94
2018-06-08T02:02:27.694Z,1012.97
2018-06-08T02:02:28.293Z,1012.95
2018-06-08T02:02:28.894Z,1012.96
2018-06-08T02:03:22.375Z,1012.96
2018-06-08T02:03:22.945Z,1012.97
2018-06-08T02:03:23.546Z,1012.96
2018-06-08T02:03:24.146Z,1012.96
2018-06-08T02:03:24.747Z,1012.96
2018-06-08T02:03:25.346Z,1012.95
2018-06-08T02:03:25.947Z,1012.97
2018-06-08T02:03:26.546Z,1012.95
2018-06-08T02:04:21.049Z,1012.94
2018-06-08T02:04:21.621Z,1012.95
2018-06-08T02:04:22.222Z,1012.95
2018-06-08T02:04:22.821Z,1012.96
2018-06-08T02:04:23.422Z,1012.99
2018-06-08T02:04:24.021Z,1012.96
2018-06-08T02:04:24.625Z,1012.98
2018-06-08T02:04:25.220Z,1012.95
2018-06-08T02:05:18.700Z,1012.93
2018-06-08T02:05:19.274Z,1012.94
2018-06-08T02:05:19.873Z,1012.95
2018-06-08T02:05:20.475Z,1012.93
2018-06-08T02:05:21.073Z,1012.92
2018-06-08T02:05:21.673Z,1012.94
2018-06-08T02:05:22.274Z,1012.95
2018-06-08T02:05:22.872Z,1012.96
2018-06-08T02:06:16.353Z,1012.96
2018-06-08T02:06:16.925Z,1012.96
2018-06-08T02:06:17.526Z,1012.95
2018-06-08T02:06:18.126Z,1012.93
2018-06-08T02:06:18.725Z,1012.96
2018-06-08T02:06:19.325Z,1012.95
2018-06-08T02:06:19.926Z,1012.97
2018-06-08T02:06:20.526Z,1012.99
2018-06-08T02:07:14.005Z,1012.94
2018-06-08T02:07:14.577Z,1012.95
2018-06-08T02:07:15.183Z,1012.93
2018-06-08T02:07:15.777Z,1012.95
2018-06-08T02:07:16.376Z,1012.94
2018-06-08T02:07:16.980Z,1012.91
2018-06-08T02:07:17.576Z,1012.97
2018-06-08T02:07:18.177Z,1012.97
2018-06-08T02:08:11.656Z,1012.93
2018-06-08T02:08:12.230Z,1012.95
2018-06-08T02:08:12.830Z,1012.94
2018-06-08T02:08:13.429Z,1012.97
2018-06-08T02:08:14.029Z,1012.94
2018-06-08T02:08:14.628Z,1012.95
2018-06-08T02:08:15.228Z,1012.95
2018-06-08T02:08:15.828Z,1012.92
2018-06-08T02:09:10.333Z,1012.95
2018-06-08T02:09:10.904Z,1012.95
2018-06-08T02:09:11.503Z,1012.93
2018-06-08T02:09:12.104Z,1012.94
2018-06-08T02:09:12.704Z,1012.95
2018-06-08T02:09:13.310Z,1012.95
2018-06-08T02:09:13.903Z,1012.95
2018-06-08T02:09:14.504Z,1012.95
2018-06-08T02:10:07.983Z,1012.91
2018-06-08T02:10:08.558Z,1012.93
2018-06-08T02:10:09.165Z,1012.93
2018-06-08T02:10:09.754Z,1012.93
2018-06-08T02:10:10.354Z,1012.94
2018-06-08T02:10:10.955Z,1012.95
2018-06-08T02:10:11.554Z,1012.94
2018-06-08T02:10:12.156Z,1012.91
2018-06-08T02:11:05.635Z,1012.95
2018-06-08T02:11:06.209Z,1012.90
2018-06-08T02:11:06.807Z,1012.91
2018-06-08T02:11:07.407Z,1012.95
2018-06-08T02:11:08.008Z,1012.91
2018-06-08T02:11:08.606Z,1012.91
2018-06-08T02:11:09.207Z,1012.91
2018-06-08T02:11:09.807Z,1012.92
2018-06-08T02:12:04.310Z,1012.89
2018-06-08T02:12:04.883Z,1012.94
2018-06-08T02:12:05.485Z,1012.96
2018-06-08T02:12:06.082Z,1012.90
2018-06-08T02:12:06.683Z,1012.92
2018-06-08T02:12:07.282Z,1012.94
2018-06-08T02:12:07.882Z,1012.91
2018-06-08T02:12:08.486Z,1012.94
2018-06-08T02:13:02.987Z,1012.90
2018-06-08T02:13:03.560Z,1012.88
2018-06-08T02:13:04.160Z,1012.92
2018-06-08T02:13:04.759Z,1012.93
2018-06-08T02:13:05.359Z,1012.92
2018-06-08T02:13:05.960Z,1012.90
2018-06-08T02:13:06.563Z,1012.92
2018-06-08T02:13:07.162Z,1012.93
2018-06-08T02:14:00.642Z,1012.93
2018-06-08T02:14:01.212Z,1012.96
2018-06-08T02:14:01.813Z,1012.95
2018-06-08T02:14:02.411Z,1012.94
2018-06-08T02:14:03.012Z,1012.94
2018-06-08T02:14:03.611Z,1012.94
2018-06-08T02:14:04.209Z,1012.95
2018-06-08T02:14:04.812Z,1012.95
2018-06-08T02:14:59.314Z,1012.93
2018-06-08T02:14:59.891Z,1012.94
2018-06-08T02:15:00.490Z,1012.96
2018-06-08T02:15:01.087Z,1012.93
2018-06-08T02:15:01.687Z,1012.93
2018-06-08T02:15:02.287Z,1012.93
2018-06-08T02:15:02.936Z,1012.92
2018-06-08T02:15:03.486Z,1012.91
2018-06-08T02:15:58.061Z,1012.94
2018-06-08T02:15:58.564Z,1012.92
2018-06-08T02:15:59.164Z,1012.89
2018-06-08T02:15:59.768Z,1012.94
2018-06-08T02:16:00.368Z,1012.94
2018-06-08T02:16:00.963Z,1012.94
2018-06-08T02:16:01.564Z,1012.95
2018-06-08T02:16:02.163Z,1012.91
2018-06-08T02:16:56.667Z,1012.93
2018-06-08T02:16:57.238Z,1012.91
2018-06-08T02:16:57.840Z,1012.92
2018-06-08T02:16:58.438Z,1012.92
2018-06-08T02:16:59.037Z,1012.89
2018-06-08T02:16:59.637Z,1012.91
2018-06-08T02:17:00.241Z,1012.93
2018-06-08T02:17:00.837Z,1012.92
2018-06-08T02:17:55.343Z,1012.96
2018-06-08T02:17:55.913Z,1012.94
2018-06-08T02:17:56.515Z,1012.96
2018-06-08T02:17:57.114Z,1012.95
2018-06-08T02:17:57.714Z,1012.94
2018-06-08T02:17:58.314Z,1012.94
2018-06-08T02:17:58.918Z,1012.95
2018-06-08T02:17:59.513Z,1012.95
2018-06-08T02:18:52.993Z,1012.96
2018-06-08T02:18:53.567Z,1012.96
2018-06-08T02:18:54.188Z,1012.93
2018-06-08T02:18:54.766Z,1012.95
2018-06-08T02:18:55.367Z,1012.94
2018-06-08T02:18:55.966Z,1012.96
2018-06-08T02:18:56.566Z,1012.94
2018-06-08T02:18:57.167Z,1012.97
2018-06-08T02:19:51.669Z,1012.93
2018-06-08T02:19:52.241Z,1012.95
2018-06-08T02:19:52.841Z,1012.97
2018-06-08T02:19:53.441Z,1012.96
2018-06-08T02:19:54.041Z,1012.94
2018-06-08T02:19:54.640Z,1012.92
2018-06-08T02:19:55.241Z,1012.94
2018-06-08T02:19:55.842Z,1012.94
2018-06-08T02:20:49.321Z,1012.95
2018-06-08T02:20:49.893Z,1012.92
2018-06-08T02:20:50.494Z,1012.89
2018-06-08T02:20:51.095Z,1012.94
2018-06-08T02:20:51.694Z,1012.93
2018-06-08T02:20:52.293Z,1012.92
2018-06-08T02:20:52.893Z,1012.95
2018-06-08T02:20:53.494Z,1012.90
2018-06-08T02:21:47.996Z,1012.90
2018-06-08T02:21:48.568Z,1012.93
2018-06-08T02:21:49.168Z,1012.93
2018-06-08T02:21:49.767Z,1012.93
2018-06-08T02:21:50.368Z,1012.92
2018-06-08T02:21:50.968Z,1012.92
2018-06-08T02:21:51.571Z,1012.91
2018-06-08T02:21:52.166Z,1012.92
2018-06-08T02:22:46.671Z,1012.92
2018-06-08T02:22:47.244Z,1012.96
2018-06-08T02:22:47.845Z,1012.91
2018-06-08T02:22:48.443Z,1012.94
2018-06-08T02:22:49.044Z,1012.93
2018-06-08T02:22:49.643Z,1012.93
2018-06-08T02:22:50.244Z,1012.93
2018-06-08T02:22:50.842Z,1012.92
2018-06-08T02:23:45.347Z,1012.92
2018-06-08T02:23:45.920Z,1012.90
2018-06-08T02:23:46.519Z,1012.91
2018-06-08T02:23:47.123Z,1012.89
2018-06-08T02:23:47.720Z,1012.90
2018-06-08T02:23:48.323Z,1012.89
2018-06-08T02:23:48.920Z,1012.90
2018-06-08T02:23:49.521Z,1012.90
2018-06-08T02:24:44.023Z,1012.90
2018-06-08T02:24:44.597Z,1012.88
2018-06-08T02:24:45.196Z,1012.89
2018-06-08T02:24:45.796Z,1012.88
2018-06-08T02:24:46.396Z,1012.88
2018-06-08T02:24:46.994Z,1012.90
2018-06-08T02:24:47.595Z,1012.92
2018-06-08T02:24:48.195Z,1012.92
2018-06-08T02:25:42.698Z,1012.90
2018-06-08T02:25:43.271Z,1012.89
2018-06-08T02:25:43.871Z,1012.90
2018-06-08T02:25:44.473Z,1012.90
2018-06-08T02:25:45.071Z,1012.90
2018-06-08T02:25:45.670Z,1012.87
2018-06-08T02:25:46.270Z,1012.92
2018-06-08T02:25:46.871Z,1012.90
2018-06-08T02:26:41.374Z,1012.88
2018-06-08T02:26:41.948Z,1012.87
2018-06-08T02:26:42.550Z,1012.87
2018-06-08T02:26:43.146Z,1012.86
2018-06-08T02:26:43.747Z,1012.86
2018-06-08T02:26:44.374Z,1012.86
2018-06-08T02:26:44.948Z,1012.86
2018-06-08T02:26:45.546Z,1012.87
2018-06-08T02:27:39.025Z,1012.88
2018-06-08T02:27:39.600Z,1012.90
2018-06-08T02:27:40.200Z,1012.89
2018-06-08T02:27:40.801Z,1012.90
2018-06-08T02:27:41.403Z,1012.89
2018-06-08T02:27:42.000Z,1012.89
2018-06-08T02:27:42.600Z,1012.89
2018-06-08T02:27:43.199Z,1012.89
2018-06-08T02:28:36.780Z,1012.91
2018-06-08T02:28:37.354Z,1012.92
2018-06-08T02:28:37.953Z,1012.89
2018-06-08T02:28:38.554Z,1012.91
2018-06-08T02:28:39.153Z,1012.91
2018-06-08T02:28:39.754Z,1012.91
2018-06-08T02:28:40.352Z,1012.92
2018-06-08T02:28:40.952Z,1012.95
2018-06-08T02:29:35.457Z,1012.87
2018-06-08T02:29:36.029Z,1012.93
2018-06-08T02:29:36.629Z,1012.92
2018-06-08T02:29:37.229Z,1012.91
2018-06-08T02:29:37.829Z,1012.90
2018-06-08T02:29:38.429Z,1012.91
2018-06-08T02:29:39.028Z,1012.90
2018-06-08T02:29:39.629Z,1012.88
2018-06-08T02:30:34.132Z,1012.92
2018-06-08T02:30:34.704Z,1012.94
2018-06-08T02:30:35.303Z,1012.91
2018-06-08T02:30:35.905Z,1012.91
2018-06-08T02:30:36.503Z,1012.89
2018-06-08T02:30:37.103Z,1012.89
2018-06-08T02:30:37.709Z,1012.91
2018-06-08T02:30:38.302Z,1012.90
2018-06-08T02:31:32.808Z,1012.87
2018-06-08T02:31:33.380Z,1012.93
2018-06-08T02:31:33.980Z,1012.91
2018-06-08T02:31:34.580Z,1012.94
2018-06-08T02:31:35.180Z,1012.94
2018-06-08T02:31:35.783Z,1012.91
2018-06-08T02:31:36.380Z,1012.91
2018-06-08T02:31:36.987Z,1012.88
2018-06-08T02:32:30.458Z,1012.91
2018-06-08T02:32:31.033Z,1012.93
2018-06-08T02:32:31.633Z,1012.94
2018-06-08T02:32:32.234Z,1012.93
2018-06-08T02:32:32.833Z,1012.92
2018-06-08T02:32:33.432Z,1012.91
2018-06-08T02:32:34.033Z,1012.91
2018-06-08T02:32:34.633Z,1012.93
2018-06-08T02:33:29.136Z,1012.94
2018-06-08T02:33:29.707Z,1012.92
2018-06-08T02:33:30.311Z,1012.95
2018-06-08T02:33:30.907Z,1012.92
2018-06-08T02:33:31.509Z,1012.96
2018-06-08T02:33:32.109Z,1012.92
2018-06-08T02:33:32.708Z,1012.95
2018-06-08T02:33:33.311Z,1012.90
2018-06-08T02:34:26.790Z,1012.95
2018-06-08T02:34:27.363Z,1012.93
2018-06-08T02:34:27.985Z,1012.94
2018-06-08T02:34:28.560Z,1012.93
2018-06-08T02:34:29.160Z,1012.93
2018-06-08T02:34:29.760Z,1012.92
2018-06-08T02:34:30.366Z,1012.94
2018-06-08T02:34:30.971Z,1012.94
2018-06-08T02:35:24.533Z,1012.92
2018-06-08T02:35:25.038Z,1012.91
2018-06-08T02:35:25.636Z,1012.93
2018-06-08T02:35:26.235Z,1012.92
2018-06-08T02:35:26.839Z,1012.95
2018-06-08T02:35:27.435Z,1012.92
2018-06-08T02:35:28.035Z,1012.92
2018-06-08T02:35:28.636Z,1012.96
2018-06-08T02:36:22.195Z,1012.93
2018-06-08T02:36:22.767Z,1012.93
2018-06-08T02:36:23.367Z,1012.90
2018-06-08T02:36:23.972Z,1012.94
2018-06-08T02:36:24.564Z,1012.96
2018-06-08T02:36:25.166Z,1012.95
2018-06-08T02:36:25.774Z,1012.89
2018-06-08T02:36:26.364Z,1012.91
2018-06-08T02:37:20.869Z,1012.93
2018-06-08T02:37:21.441Z,1012.96
2018-06-08T02:37:22.041Z,1012.93
2018-06-08T02:37:22.641Z,1012.93
2018-06-08T02:37:23.241Z,1012.95
2018-06-08T02:37:23.842Z,1012.95
2018-06-08T02:37:24.451Z,1012.93
2018-06-08T02:37:25.051Z,1012.93
2018-06-08T02:38:19.549Z,1012.94
2018-06-08T02:38:20.116Z,1012.96
2018-06-08T02:38:20.717Z,1012.93
2018-06-08T02:38:21.319Z,1012.96
2018-06-08T02:38:21.916Z,1012.95
2018-06-08T02:38:22.515Z,1012.94
2018-06-08T02:38:23.117Z,1012.91
2018-06-08T02:38:23.716Z,1012.93
2018-06-08T02:39:17.199Z,1012.97
2018-06-08T02:39:17.768Z,1012.93
2018-06-08T02:39:18.375Z,1012.96
2018-06-08T02:39:18.969Z,1012.94
2018-06-08T02:39:19.568Z,1012.96
2018-06-08T02:39:20.169Z,1012.96
2018-06-08T02:39:20.768Z,1012.98
2018-06-08T02:39:21.367Z,1012.96
2018-06-08T02:40:14.848Z,1012.94
2018-06-08T02:40:15.424Z,1012.94
2018-06-08T02:40:16.024Z,1012.95
2018-06-08T02:40:16.619Z,1012.94
2018-06-08T02:40:17.218Z,1012.92
2018-06-08T02:40:17.824Z,1012.94
2018-06-08T02:40:18.421Z,1012.92
2018-06-08T02:40:19.027Z,1012.93
2018-06-08T02:41:12.503Z,1012.94
2018-06-08T02:41:13.073Z,1012.96
2018-06-08T02:41:13.673Z,1012.96
2018-06-08T02:41:14.272Z,1012.94
2018-06-08T02:41:14.872Z,1012.93
2018-06-08T02:41:15.475Z,1012.93
2018-06-08T02:41:16.075Z,1012.94
2018-06-08T02:41:16.672Z,1012.93
2018-06-08T02:42:11.176Z,1012.94
2018-06-08T02:42:11.748Z,1012.93
2018-06-08T02:42:12.349Z,1012.93
2018-06-08T02:42:12.948Z,1012.95
2018-06-08T02:42:13.548Z,1012.89
2018-06-08T02:42:14.149Z,1012.92
2018-06-08T02:42:14.747Z,1012.95
2018-06-08T02:42:15.348Z,1012.95
2018-06-08T02:43:08.826Z,1012.91
2018-06-08T02:43:09.401Z,1012.92
2018-06-08T02:43:10.000Z,1012.96
2018-06-08T02:43:10.599Z,1012.95
2018-06-08T02:43:11.201Z,1012.91
2018-06-08T02:43:11.801Z,1012.94
2018-06-08T02:43:12.400Z,1012.93
2018-06-08T02:43:13.004Z,1012.95
2018-06-08T02:44:07.504Z,1012.92
2018-06-08T02:44:08.078Z,1012.95
2018-06-08T02:44:08.674Z,1012.93
2018-06-08T02:44:09.275Z,1012.96
2018-06-08T02:44:09.875Z,1012.95
2018-06-08T02:44:10.476Z,1012.95
2018-06-08T02:44:11.076Z,1012.97
2018-06-08T02:44:11.675Z,1012.95
2018-06-08T02:45:06.178Z,1012.93
2018-06-08T02:45:06.755Z,1012.96
2018-06-08T02:45:07.352Z,1012.94
2018-06-08T02:45:07.953Z,1012.98
2018-06-08T02:45:08.552Z,1012.96
2018-06-08T02:45:09.148Z,1012.95
2018-06-08T02:45:09.749Z,1012.93
2018-06-08T02:45:10.348Z,1012.96
2018-06-08T02:46:04.855Z,1012.92
2018-06-08T02:46:05.427Z,1012.91
2018-06-08T02:46:06.028Z,1012.93
2018-06-08T02:46:06.627Z,1012.93
2018-06-08T02:46:07.231Z,1012.92
2018-06-08T02:46:07.825Z,1012.95
2018-06-08T02:46:08.432Z,1012.89
2018-06-08T02:46:09.026Z,1012.94
2018-06-08T02:47:03.529Z,1012.92
2018-06-08T02:47:04.104Z,1012.94
2018-06-08T02:47:04.705Z,1012.97
2018-06-08T02:47:05.302Z,1012.99
2018-06-08T02:47:05.902Z,1012.97
2018-06-08T02:47:06.501Z,1012.96
2018-06-08T02:47:07.100Z,1012.98
2018-06-08T02:47:07.707Z,1012.95
2018-06-08T02:48:01.183Z,1012.96
2018-06-08T02:48:01.758Z,1012.98
2018-06-08T02:48:02.358Z,1012.92
2018-06-08T02:48:02.953Z,1012.95
2018-06-08T02:48:03.553Z,1012.95
2018-06-08T02:48:04.154Z,1012.96
2018-06-08T02:48:04.754Z,1012.97
2018-06-08T02:48:05.358Z,1012.97
2018-06-08T02:48:58.936Z,1012.95
2018-06-08T02:48:59.509Z,1012.95
2018-06-08T02:49:00.111Z,1012.95
2018-06-08T02:49:00.711Z,1012.96
2018-06-08T02:49:01.311Z,1012.95
2018-06-08T02:49:01.909Z,1012.98
2018-06-08T02:49:02.510Z,1012.94
2018-06-08T02:49:03.111Z,1012.96
2018-06-08T02:49:57.612Z,1012.99
2018-06-08T02:49:58.184Z,1012.93
2018-06-08T02:49:58.794Z,1012.95
2018-06-08T02:49:59.385Z,1012.96
2018-06-08T02:49:59.984Z,1012.95
2018-06-08T02:50:00.583Z,1012.92
2018-06-08T02:50:01.184Z,1012.93
2018-06-08T02:50:01.787Z,1012.94
2018-06-08T02:50:56.287Z,1012.99
2018-06-08T02:50:56.859Z,1012.99
2018-06-08T02:50:57.460Z,1012.97
2018-06-08T02:50:58.060Z,1012.97
2018-06-08T02:50:58.660Z,1012.98
2018-06-08T02:50:59.260Z,1012.96
2018-06-08T02:50:59.860Z,1012.95
2018-06-08T02:51:00.460Z,1012.99
2018-06-08T02:51:53.941Z,1012.98
2018-06-08T02:51:54.512Z,1012.98
2018-06-08T02:51:55.111Z,1012.99
2018-06-08T02:51:55.712Z,1012.97
2018-06-08T02:51:56.311Z,1012.97
2018-06-08T02:51:56.912Z,1012.99
2018-06-08T02:51:57.512Z,1013.01
2018-06-08T02:51:58.113Z,1013.03
2018-06-08T02:52:51.591Z,1013.01
2018-06-08T02:52:52.167Z,1012.99
2018-06-08T02:52:52.763Z,1012.98
2018-06-08T02:52:53.364Z,1013.00
2018-06-08T02:52:53.970Z,1013.01
2018-06-08T02:52:54.564Z,1012.99
2018-06-08T02:52:55.164Z,1013.00
2018-06-08T02:52:55.763Z,1013.01
2018-06-08T02:53:50.265Z,1012.99
2018-06-08T02:53:50.838Z,1012.99
2018-06-08T02:53:51.439Z,1013.00
2018-06-08T02:53:52.040Z,1013.00
2018-06-08T02:53:52.640Z,1012.97
2018-06-08T02:53:53.238Z,1012.99
2018-06-08T02:53:53.839Z,1012.99
2018-06-08T02:53:54.439Z,1012.99
2018-06-08T02:54:47.918Z,1012.96
2018-06-08T02:54:48.492Z,1012.97
2018-06-08T02:54:49.098Z,1012.97
2018-06-08T02:54:49.690Z,1012.98
2018-06-08T02:54:50.290Z,1012.98
2018-06-08T02:54:50.892Z,1012.97
2018-06-08T02:54:51.491Z,1012.98
2018-06-08T02:54:52.089Z,1012.97
2018-06-08T02:55:45.568Z,1012.99
2018-06-08T02:55:46.148Z,1012.97
2018-06-08T02:55:46.745Z,1012.96
2018-06-08T02:55:47.341Z,1012.99
2018-06-08T02:55:47.942Z,1012.95
2018-06-08T02:55:48.543Z,1012.97
2018-06-08T02:55:49.143Z,1012.98
2018-06-08T02:55:49.741Z,1012.98
2018-06-08T02:56:44.245Z,1012.93
2018-06-08T02:56:44.817Z,1012.95
2018-06-08T02:56:45.418Z,1012.92
2018-06-08T02:56:46.018Z,1012.95
2018-06-08T02:56:46.619Z,1012.94
2018-06-08T02:56:47.217Z,1012.95
2018-06-08T02:56:47.818Z,1012.94
2018-06-08T02:56:48.417Z,1012.98
2018-06-08T02:57:42.923Z,1012.98
2018-06-08T02:57:43.494Z,1012.95
2018-06-08T02:57:44.097Z,1012.94
2018-06-08T02:57:44.693Z,1012.93
2018-06-08T02:57:45.294Z,1012.95
2018-06-08T02:57:45.896Z,1012.95
2018-06-08T02:57:46.498Z,1012.94
2018-06-08T02:57:47.094Z,1012.94
2018-06-08T02:58:41.600Z,1012.94
2018-06-08T02:58:42.170Z,1012.95
2018-06-08T02:58:42.770Z,1012.98
2018-06-08T02:58:43.371Z,1012.95
2018-06-08T02:58:43.970Z,1012.93
2018-06-08T02:58:44.569Z,1012.96